Time;durP1;ratioP1;P1;durP2;ratioP2;P2;SDS_P1;SDS_P2;PMS_P1;PMS_P2;Temp;Humidity;BMP_temperature;BMP_pressure;BME280_temperature;BME280_humidity;BME280_pressure;Samples;Min_cycle;Max_cycle;Signal;HPM_P1;HPM_P2
2023/04/26 00:00:48;;;;;;;1.50;1.50;;;18.20;66.90;;;;;;5032546;28;43904;-77
2023/04/26 00:03:19;;;;;;;1.73;1.67;;;18.20;67.00;;;;;;5033502;28;43570;-77
2023/04/26 00:05:47;;;;;;;1.40;1.40;;;18.20;67.30;;;;;;5030854;28;43439;-77
2023/04/26 00:08:15;;;;;;;1.60;1.60;;;18.30;67.20;;;;;;5028515;28;43425;-77
2023/04/26 00:10:43;;;;;;;1.37;1.37;;;18.40;66.80;;;;;;5032055;28;44030;-77
2023/04/26 00:13:11;;;;;;;1.20;1.20;;;18.40;67.20;;;;;;5029323;28;43464;-77
2023/04/26 00:15:39;;;;;;;1.30;1.30;;;18.40;66.30;;;;;;5034074;28;43396;-78
2023/04/26 00:18:07;;;;;;;1.40;1.40;;;18.40;66.40;;;;;;5030859;28;43379;-77
2023/04/26 00:20:37;;;;;;;1.30;1.30;;;18.40;66.70;;;;;;5035588;28;43620;-78
2023/04/26 00:23:08;;;;;;;1.30;1.30;;;18.40;66.70;;;;;;5021550;28;44491;-78
2023/04/26 00:25:36;;;;;;;1.40;1.40;;;18.40;66.70;;;;;;5032774;28;43403;-78
2023/04/26 00:28:04;;;;;;;1.60;1.60;;;18.30;66.60;;;;;;5031428;28;43562;-77
2023/04/26 00:30:33;;;;;;;1.53;1.53;;;18.30;66.60;;;;;;5030295;28;45338;-77
2023/04/26 00:33:01;;;;;;;1.33;1.33;;;18.20;66.70;;;;;;5036819;28;44707;-77
2023/04/26 00:35:29;;;;;;;1.40;1.40;;;18.20;67.00;;;;;;5032935;28;43827;-77
2023/04/26 00:37:59;;;;;;;1.30;1.30;;;18.20;66.80;;;;;;5030176;28;43387;-77
2023/04/26 00:40:27;;;;;;;1.23;1.23;;;18.20;66.90;;;;;;5033702;28;43616;-76
2023/04/26 00:42:57;;;;;;;1.20;1.20;;;18.20;66.90;;;;;;5030874;28;43451;-77
2023/04/26 00:45:25;;;;;;;1.50;1.50;;;18.20;67.00;;;;;;5025305;28;43483;-77
2023/04/26 00:47:53;;;;;;;1.40;1.40;;;18.20;67.30;;;;;;5025356;28;43432;-76
2023/04/26 00:50:21;;;;;;;1.17;1.17;;;18.20;67.00;;;;;;5032175;28;45993;-75
2023/04/26 00:52:49;;;;;;;1.30;1.30;;;18.20;67.00;;;;;;5029336;28;44018;-76
2023/04/26 00:55:19;;;;;;;1.50;1.50;;;18.20;67.00;;;;;;5029085;28;43414;-78
2023/04/26 00:57:47;;;;;;;1.40;1.40;;;18.20;67.00;;;;;;5028283;28;43527;-78
2023/04/26 01:00:16;;;;;;;1.50;1.50;;;18.20;67.20;;;;;;5033442;28;43674;-74
2023/04/26 01:02:45;;;;;;;1.30;1.30;;;18.20;67.40;;;;;;5034271;28;43435;-78
2023/04/26 01:05:13;;;;;;;1.47;1.47;;;18.20;67.20;;;;;;5062983;22;43461;-75
2023/04/26 01:07:44;;;;;;;1.30;1.30;;;18.30;66.80;;;;;;5058114;28;43575;-76
2023/04/26 01:10:13;;;;;;;1.50;1.50;;;18.40;66.60;;;;;;5065021;28;44257;-76
2023/04/26 01:12:42;;;;;;;1.50;1.50;;;18.40;66.30;;;;;;5060320;28;44772;-77
2023/04/26 01:15:11;;;;;;;1.30;1.30;;;18.40;66.40;;;;;;5060353;28;43477;-77
2023/04/26 01:17:39;;;;;;;1.40;1.40;;;18.40;66.70;;;;;;5066750;28;43458;-76
2023/04/26 01:20:10;;;;;;;1.33;1.33;;;18.40;66.50;;;;;;5064252;28;44111;-75
2023/04/26 01:22:40;;;;;;;1.53;1.43;;;18.40;66.50;;;;;;5064794;28;43419;-75
2023/04/26 01:25:10;;;;;;;1.53;1.53;;;18.30;66.50;;;;;;5056701;28;43458;-78
2023/04/26 01:27:39;;;;;;;1.50;1.50;;;18.30;66.60;;;;;;5065190;28;43530;-78
2023/04/26 01:30:10;;;;;;;1.40;1.40;;;18.30;66.70;;;;;;5061059;28;45779;-78
2023/04/26 01:32:38;;;;;;;1.30;1.30;;;18.20;66.90;;;;;;5060192;28;45059;-78
2023/04/26 01:35:07;;;;;;;1.37;1.37;;;18.20;66.70;;;;;;5064994;28;43422;-78
2023/04/26 01:37:35;;;;;;;1.30;1.30;;;18.20;66.70;;;;;;5054388;28;43375;-78
2023/04/26 01:40:06;;;;;;;1.40;1.40;;;18.20;66.80;;;;;;5063550;28;45779;-77
2023/04/26 01:42:34;;;;;;;1.40;1.40;;;18.20;66.80;;;;;;5064319;28;43701;-77
2023/04/26 01:45:02;;;;;;;1.43;1.33;;;18.20;67.00;;;;;;5053984;28;43375;-78
2023/04/26 01:47:50;;;;;;;1.40;1.40;;;18.20;67.10;;;;;;5059537;28;43491;-79
2023/04/26 01:50:19;;;;;;;1.40;1.40;;;18.30;66.80;;;;;;5063884;28;45690;-77
2023/04/26 01:52:47;;;;;;;1.50;1.50;;;18.30;66.50;;;;;;5059214;28;43784;-78
2023/04/26 01:55:16;;;;;;;1.33;1.33;;;18.40;66.40;;;;;;5064375;28;43341;-76
2023/04/26 01:57:44;;;;;;;1.53;1.53;;;18.30;66.30;;;;;;5058347;28;43620;-78
2023/04/26 02:00:13;;;;;;;1.40;1.40;;;18.30;66.60;;;;;;5064111;28;46609;-76
2023/04/26 02:02:42;;;;;;;1.60;1.50;;;18.30;66.60;;;;;;5060197;28;44766;-77
2023/04/26 02:05:11;;;;;;;1.30;1.30;;;18.30;66.50;;;;;;5061088;28;43892;-77
2023/04/26 02:07:39;;;;;;;1.30;1.30;;;18.30;66.60;;;;;;5054744;28;43436;-76
2023/04/26 02:10:08;;;;;;;1.27;1.27;;;18.20;66.50;;;;;;5064117;28;45930;-76
2023/04/26 02:12:38;;;;;;;1.50;1.50;;;18.20;66.60;;;;;;5060593;28;45007;-77
2023/04/26 02:15:07;;;;;;;1.20;1.20;;;18.20;66.90;;;;;;5056829;28;43427;-77
2023/04/26 02:17:36;;;;;;;1.53;1.50;;;18.20;66.80;;;;;;5066006;28;43477;-78
2023/04/26 02:20:06;;;;;;;1.30;1.30;;;18.20;66.70;;;;;;5059196;28;43825;-77
2023/04/26 02:22:34;;;;;;;1.40;1.40;;;18.20;66.70;;;;;;5063837;28;44403;-77
2023/04/26 02:25:02;;;;;;;1.60;1.60;;;18.20;66.90;;;;;;5062289;28;43410;-78
2023/04/26 02:27:30;;;;;;;1.30;1.30;;;18.10;66.80;;;;;;5063406;28;43526;-77
2023/04/26 02:30:00;;;;;;;1.50;1.40;;;18.10;67.00;;;;;;5065912;28;46094;-78
2023/04/26 02:32:28;;;;;;;1.50;1.50;;;18.20;67.00;;;;;;5055048;28;44418;-78
2023/04/26 02:34:57;;;;;;;1.47;1.47;;;18.30;66.60;;;;;;5061882;28;44088;-77
2023/04/26 02:37:25;;;;;;;1.30;1.30;;;18.40;66.40;;;;;;5061559;28;43571;-76
2023/04/26 02:39:54;;;;;;;1.70;1.60;;;18.40;66.20;;;;;;5066760;28;43941;-76
2023/04/26 02:42:22;;;;;;;1.77;1.77;;;18.40;66.20;;;;;;5064517;28;44825;-77
2023/04/26 02:44:51;;;;;;;1.37;1.37;;;18.30;66.50;;;;;;5064980;28;43459;-77
2023/04/26 02:47:20;;;;;;;1.60;1.50;;;18.30;66.30;;;;;;5061023;28;43399;-78
2023/04/26 02:49:50;;;;;;;1.13;1.13;;;18.30;66.30;;;;;;5056542;28;44172;-76
2023/04/26 02:52:18;;;;;;;1.50;1.40;;;18.30;66.40;;;;;;5051001;28;43951;-76
2023/04/26 02:54:46;;;;;;;1.53;1.53;;;18.20;66.50;;;;;;5061450;28;43436;-77
2023/04/26 02:57:15;;;;;;;1.40;1.40;;;18.20;66.50;;;;;;5067426;28;43565;-76
2023/04/26 02:59:43;;;;;;;1.73;1.60;;;18.20;66.80;;;;;;5059890;28;45646;-76
2023/04/26 03:02:12;;;;;;;1.43;1.43;;;18.20;66.60;;;;;;5066672;28;44744;-76
2023/04/26 03:04:42;;;;;;;1.30;1.30;;;18.20;66.70;;;;;;5066585;28;43380;-77
2023/04/26 03:07:10;;;;;;;1.50;1.50;;;18.20;66.70;;;;;;5063879;28;44007;-77
2023/04/26 03:09:39;;;;;;;1.50;1.50;;;18.20;66.80;;;;;;5061413;28;43840;-77
2023/04/26 03:12:07;;;;;;;1.40;1.40;;;18.10;66.90;;;;;;5063507;28;44626;-77
2023/04/26 03:14:37;;;;;;;1.30;1.30;;;18.10;66.70;;;;;;5066544;28;43376;-77
2023/04/26 03:17:05;;;;;;;1.30;1.30;;;18.20;66.80;;;;;;5065092;28;43502;-77
2023/04/26 03:19:34;;;;;;;1.40;1.40;;;18.10;66.70;;;;;;5057689;28;45753;-77
2023/04/26 03:22:06;;;;;;;1.47;1.47;;;18.10;66.70;;;;;;5066390;28;45353;-78
2023/04/26 03:24:34;;;;;;;1.33;1.33;;;18.10;66.70;;;;;;5065064;28;43429;-78
2023/04/26 03:27:02;;;;;;;1.30;1.30;;;18.10;66.90;;;;;;5061878;28;43450;-76
2023/04/26 03:29:31;;;;;;;1.50;1.50;;;18.20;66.90;;;;;;5059841;28;45536;-76
2023/04/26 03:31:59;;;;;;;1.40;1.40;;;18.30;66.60;;;;;;5065961;28;44472;-77
2023/04/26 03:34:28;;;;;;;1.33;1.33;;;18.40;66.30;;;;;;5066647;28;43507;-77
2023/04/26 03:36:57;;;;;;;1.60;1.60;;;18.40;66.00;;;;;;5057099;28;43639;-76
2023/04/26 03:39:27;;;;;;;1.50;1.50;;;18.40;65.80;;;;;;5066174;28;45640;-76
2023/04/26 03:41:55;;;;;;;1.40;1.40;;;18.40;66.00;;;;;;5061428;28;44735;-74
2023/04/26 03:44:24;;;;;;;1.60;1.60;;;18.40;66.20;;;;;;5062832;28;43841;-76
2023/04/26 03:46:52;;;;;;;1.50;1.50;;;18.40;66.10;;;;;;5065024;28;43716;-77
2023/04/26 03:49:20;;;;;;;1.53;1.53;;;18.30;65.90;;;;;;5067060;28;43825;-77
2023/04/26 03:51:49;;;;;;;1.50;1.50;;;18.30;66.10;;;;;;5061581;28;43409;-77
2023/04/26 03:54:17;;;;;;;2.20;2.00;;;18.30;66.20;;;;;;5066585;28;43858;-77
2023/04/26 03:56:47;;;;;;;2.50;2.30;;;18.20;66.40;;;;;;5066626;28;44007;-78
2023/04/26 03:59:15;;;;;;;4.07;2.70;;;18.20;66.40;;;;;;5066019;28;46020;-74
2023/04/26 04:01:45;;;;;;;2.37;2.20;;;18.20;66.40;;;;;;5056253;28;43865;-77
2023/04/26 04:04:14;;;;;;;3.93;2.70;;;18.20;66.50;;;;;;5062169;28;43712;-77
2023/04/26 04:06:44;;;;;;;2.83;2.63;;;18.10;66.50;;;;;;5060793;28;44024;-76
2023/04/26 04:09:12;;;;;;;7.13;4.00;;;18.10;66.60;;;;;;5060804;28;45672;-76
2023/04/26 04:11:40;;;;;;;7.27;4.13;;;18.10;66.50;;;;;;5067232;28;44730;-78
2023/04/26 04:14:10;;;;;;;9.30;4.60;;;18.20;66.60;;;;;;5056599;28;43893;-76
2023/04/26 04:16:38;;;;;;;9.13;4.77;;;18.20;66.40;;;;;;5061153;28;43415;-79
2023/04/26 04:19:08;;;;;;;10.53;5.00;;;18.20;66.10;;;;;;5060070;28;43869;-79
2023/04/26 04:21:36;;;;;;;11.67;5.50;;;18.20;66.10;;;;;;5066538;28;43500;-78
2023/04/26 04:24:05;;;;;;;17.73;6.60;;;18.20;66.20;;;;;;5060993;28;43445;-78
2023/04/26 04:26:33;;;;;;;15.57;6.23;;;18.20;67.10;;;;;;5062150;28;43390;-76
2023/04/26 04:29:07;;;;;;;15.67;6.37;;;18.20;66.30;;;;;;5063669;28;45679;-76
2023/04/26 04:31:40;;;;;;;13.83;5.97;;;18.20;66.20;;;;;;5067522;28;43458;-76
2023/04/26 04:34:09;;;;;;;11.60;5.67;;;18.20;66.30;;;;;;5059494;28;43441;-75
2023/04/26 04:36:40;;;;;;;13.77;6.33;;;18.10;66.40;;;;;;5063609;28;43554;-76
2023/04/26 04:39:14;;;;;;;10.80;6.50;;;18.10;66.60;;;;;;5067212;28;43878;-75
2023/04/26 04:41:46;;;;;;;11.27;5.93;;;18.10;66.70;;;;;;5062344;28;45118;-75
2023/04/26 04:44:17;;;;;;;13.60;6.03;;;18.20;66.40;;;;;;5066200;28;43389;-76
2023/04/26 04:46:46;;;;;;;12.83;6.50;;;18.30;66.00;;;;;;5052453;28;43637;-74
2023/04/26 04:49:15;;;;;;;13.17;6.17;;;18.30;66.10;;;;;;5064210;28;44686;-77
2023/04/26 04:51:43;;;;;;;11.40;6.00;;;18.30;66.20;;;;;;5063062;28;45036;-77
2023/04/26 04:54:12;;;;;;;12.20;5.77;;;18.20;66.40;;;;;;5051010;28;43376;-77
2023/04/26 04:56:40;;;;;;;8.20;5.33;;;18.20;66.30;;;;;;5061608;28;43359;-77
2023/04/26 04:59:10;;;;;;;9.80;5.87;;;18.20;66.10;;;;;;5062871;28;43915;-77
2023/04/26 05:01:38;;;;;;;10.43;5.67;;;18.20;66.20;;;;;;5064608;28;44597;-77
2023/04/26 05:04:12;;;;;;;8.97;5.63;;;18.20;66.40;;;;;;5061227;28;43476;-78
2023/04/26 05:06:41;;;;;;;12.37;5.83;;;18.20;66.40;;;;;;5061993;28;44137;-77
2023/04/26 05:09:10;;;;;;;10.87;5.70;;;18.10;66.60;;;;;;5066359;28;43674;-77
2023/04/26 05:11:38;;;;;;;8.47;5.60;;;18.20;66.60;;;;;;5062308;28;43994;-77
2023/04/26 05:14:08;;;;;;;9.87;5.93;;;18.30;66.40;;;;;;5064771;28;43913;-77
2023/04/26 05:16:37;;;;;;;11.43;5.50;;;18.30;66.00;;;;;;5065222;28;43499;-77
2023/04/26 05:19:05;;;;;;;9.03;5.20;;;18.30;66.00;;;;;;5063186;28;45720;-77
2023/04/26 05:21:38;;;;;;;9.60;5.20;;;18.20;66.00;;;;;;5057182;28;44991;-78
2023/04/26 05:24:07;;;;;;;9.93;5.40;;;18.20;66.40;;;;;;5063926;28;43928;-77
2023/04/26 05:26:36;;;;;;;9.30;5.47;;;18.20;66.10;;;;;;5067473;28;43462;-77
2023/04/26 05:29:21;;;;;;;6.67;4.80;;;18.20;66.10;;;;;;5064058;28;44073;-77
2023/04/26 05:32:04;;;;;;;8.30;4.93;;;18.20;66.20;;;;;;5062680;28;44778;-77
2023/04/26 05:34:43;;;;;;;9.23;5.13;;;18.20;66.30;;;;;;5057423;28;43459;-77
2023/04/26 05:37:17;;;;;;;7.77;4.83;;;18.10;66.50;;;;;;5064519;28;43505;-77
2023/04/26 05:39:45;;;;;;;8.27;5.13;;;18.10;66.40;;;;;;5063486;28;45631;-77
2023/04/26 05:42:13;;;;;;;7.63;4.83;;;18.10;66.40;;;;;;5057949;28;44854;-77
2023/04/26 05:44:44;;;;;;;5.20;4.27;;;18.20;66.40;;;;;;5064780;28;43347;-78
2023/04/26 05:47:12;;;;;;;9.77;4.97;;;18.10;66.40;;;;;;5061070;28;43408;-77
2023/04/26 05:49:41;;;;;;;6.67;4.97;;;18.10;66.40;;;;;;5065496;28;43890;-77
2023/04/26 05:52:12;;;;;;;6.53;5.10;;;18.10;66.70;;;;;;5053152;28;44405;-77
2023/04/26 05:54:42;;;;;;;6.83;4.97;;;18.20;66.70;;;;;;5063364;28;43412;-78
2023/04/26 05:57:10;;;;;;;7.43;4.90;;;18.20;66.40;;;;;;5068293;28;43870;-78
2023/04/26 05:59:40;;;;;;;8.87;5.10;;;18.30;66.00;;;;;;5067716;28;44328;-77
2023/04/26 06:02:08;;;;;;;5.63;4.53;;;18.40;65.80;;;;;;5067291;28;43426;-77
2023/04/26 06:04:36;;;;;;;6.47;4.67;;;18.40;65.60;;;;;;5065952;28;43475;-77
2023/04/26 06:07:09;;;;;;;6.77;4.70;;;18.40;66.00;;;;;;5067810;28;43534;-77
2023/04/26 06:09:37;;;;;;;6.50;4.43;;;18.30;65.90;;;;;;5065726;28;43658;-77
2023/04/26 06:12:07;;;;;;;5.73;4.50;;;18.30;65.70;;;;;;5061610;28;45384;-77
2023/04/26 06:14:39;;;;;;;6.47;5.10;;;18.30;65.80;;;;;;5062729;28;43389;-77
2023/04/26 06:17:13;;;;;;;7.47;4.33;;;18.20;66.00;;;;;;5065801;28;43540;-77
2023/04/26 06:19:41;;;;;;;5.93;4.60;;;18.20;66.10;;;;;;5067064;28;45873;-77
2023/04/26 06:22:09;;;;;;;5.07;4.07;;;18.20;66.40;;;;;;5066338;28;44763;-77
2023/04/26 06:24:38;;;;;;;5.30;4.27;;;18.20;66.40;;;;;;5065140;28;43591;-78
2023/04/26 06:27:08;;;;;;;4.37;3.87;;;18.10;66.40;;;;;;5066533;28;43627;-77
2023/04/26 06:29:38;;;;;;;4.80;4.37;;;18.10;66.40;;;;;;5067324;28;45754;-77
2023/04/26 06:32:07;;;;;;;5.60;4.80;;;18.10;66.40;;;;;;5057284;28;44804;-77
2023/04/26 06:34:36;;;;;;;5.27;4.27;;;18.10;66.50;;;;;;5066841;28;43354;-77
2023/04/26 06:37:05;;;;;;;6.00;4.20;;;18.10;66.70;;;;;;5055833;28;44098;-77
2023/04/26 06:39:37;;;;;;;5.07;3.97;;;18.10;66.50;;;;;;5066997;28;43840;-77
2023/04/26 06:42:06;;;;;;;4.50;4.00;;;18.10;66.50;;;;;;5066831;28;44761;-77
2023/04/26 06:44:55;;;;;;;4.53;4.13;;;18.10;66.50;;;;;;5068657;28;43370;-77
2023/04/26 06:47:23;;;;;;;4.37;3.97;;;18.00;66.50;;;;;;5067279;28;43560;-77
2023/04/26 06:49:51;;;;;;;5.50;4.00;;;18.00;66.80;;;;;;5066885;28;44101;-77
2023/04/26 06:52:20;;;;;;;4.30;3.70;;;18.10;66.90;;;;;;5063545;28;44452;-77
2023/04/26 06:54:48;;;;;;;5.47;4.43;;;18.20;66.60;;;;;;5063509;28;43370;-78
2023/04/26 06:57:25;;;;;;;4.97;4.03;;;18.30;66.20;;;;;;5067458;28;43594;-77
2023/04/26 06:59:53;;;;;;;3.87;3.53;;;18.30;65.70;;;;;;5068253;28;43610;-78
2023/04/26 07:02:23;;;;;;;3.97;3.60;;;18.30;65.70;;;;;;5067916;28;43397;-74
2023/04/26 07:04:51;;;;;;;4.17;3.70;;;18.30;65.90;;;;;;5061642;28;43418;-76
2023/04/26 07:07:21;;;;;;;4.30;4.00;;;18.30;65.90;;;;;;5067093;28;43931;-75
2023/04/26 07:09:49;;;;;;;4.07;3.67;;;18.30;65.90;;;;;;5066827;28;45882;-76
2023/04/26 07:12:17;;;;;;;4.23;3.50;;;18.30;66.00;;;;;;5061879;28;43573;-78
2023/04/26 07:14:47;;;;;;;3.40;3.13;;;18.20;66.10;;;;;;5065789;28;43439;-75
2023/04/26 07:17:15;;;;;;;4.10;3.67;;;18.20;66.30;;;;;;5065752;28;43451;-75
2023/04/26 07:19:43;;;;;;;4.53;4.13;;;18.20;66.40;;;;;;5066305;28;45728;-77
2023/04/26 07:22:11;;;;;;;4.00;3.60;;;18.20;66.40;;;;;;5058948;28;44025;-76
2023/04/26 07:24:39;;;;;;;3.83;3.53;;;18.10;66.40;;;;;;5062035;28;43463;-76
2023/04/26 07:27:07;;;;;;;3.60;3.40;;;18.10;66.40;;;;;;5065399;28;43489;-78
2023/04/26 07:29:38;;;;;;;3.40;3.13;;;18.10;66.40;;;;;;5063321;28;43876;-76
2023/04/26 07:32:08;;;;;;;4.17;3.77;;;18.10;66.60;;;;;;5065860;28;44993;-76
2023/04/26 07:34:36;;;;;;;3.93;3.53;;;18.10;66.80;;;;;;5062195;28;43450;-76
2023/04/26 07:37:05;;;;;;;3.70;3.40;;;18.10;66.70;;;;;;5068446;28;43692;-79
2023/04/26 07:39:34;;;;;;;3.90;3.60;;;18.20;66.40;;;;;;5065855;28;46047;-78
2023/04/26 07:42:02;;;;;;;3.40;3.10;;;18.30;66.10;;;;;;5065807;28;45009;-77
2023/04/26 07:44:30;;;;;;;3.70;3.40;;;18.20;66.10;;;;;;5067881;28;43437;-76
2023/04/26 07:46:58;;;;;;;3.50;3.27;;;18.20;66.10;;;;;;5060029;28;43467;-76
2023/04/26 07:49:27;;;;;;;3.43;3.13;;;18.20;66.30;;;;;;5054794;28;43615;-78
2023/04/26 07:51:57;;;;;;;2.93;2.73;;;18.20;66.20;;;;;;5066569;28;43431;-76
2023/04/26 07:54:25;;;;;;;3.20;3.00;;;18.20;66.30;;;;;;5060400;28;43354;-76
2023/04/26 07:56:53;;;;;;;3.67;3.37;;;18.20;66.40;;;;;;5066333;28;43526;-77
2023/04/26 07:59:21;;;;;;;3.47;3.27;;;18.20;66.40;;;;;;5067507;28;43829;-76
2023/04/26 08:01:50;;;;;;;3.07;2.97;;;18.10;66.60;;;;;;5067640;28;43442;-75
2023/04/26 08:04:18;;;;;;;3.20;3.00;;;18.10;66.50;;;;;;5061653;28;43531;-77
2023/04/26 08:06:48;;;;;;;3.10;2.90;;;18.10;66.50;;;;;;5060274;28;43476;-77
2023/04/26 08:09:16;;;;;;;2.97;2.77;;;18.10;66.60;;;;;;5064145;28;45974;-77
2023/04/26 08:11:44;;;;;;;3.90;3.60;;;18.10;66.70;;;;;;5058864;28;44282;-77
2023/04/26 08:14:12;;;;;;;3.57;3.27;;;18.10;66.80;;;;;;5062951;28;43838;-77
2023/04/26 08:16:40;;;;;;;3.40;3.20;;;18.00;66.90;;;;;;5052705;28;43479;-77
2023/04/26 08:19:08;;;;;;;3.30;3.10;;;18.10;66.90;;;;;;5063778;28;46050;-77
2023/04/26 08:21:36;;;;;;;3.00;2.80;;;18.20;66.50;;;;;;5059522;28;44811;-77
2023/04/26 08:24:07;;;;;;;3.10;2.87;;;18.20;66.20;;;;;;5065222;28;43467;-78
2023/04/26 08:26:35;;;;;;;2.97;2.77;;;18.20;66.20;;;;;;5065960;28;43537;-77
2023/04/26 08:29:03;;;;;;;2.93;2.73;;;18.20;66.30;;;;;;5064751;28;45830;-77
2023/04/26 08:31:31;;;;;;;3.10;2.90;;;18.20;66.40;;;;;;5066902;28;43386;-77
2023/04/26 08:33:59;;;;;;;2.80;2.60;;;18.20;66.40;;;;;;5058487;28;43468;-77
2023/04/26 08:36:27;;;;;;;2.60;2.50;;;18.20;66.40;;;;;;5067516;28;43434;-78
2023/04/26 08:38:56;;;;;;;2.87;2.70;;;18.10;66.40;;;;;;5066542;28;43853;-77
2023/04/26 08:41:25;;;;;;;3.03;2.83;;;18.10;66.50;;;;;;5058688;28;43365;-77
2023/04/26 08:43:55;;;;;;;2.67;2.47;;;18.10;66.70;;;;;;5065304;28;43454;-77
2023/04/26 08:46:23;;;;;;;2.73;2.63;;;18.10;66.80;;;;;;5067504;28;43402;-77
2023/04/26 08:48:57;;;;;;;2.83;2.63;;;18.10;66.80;;;;;;5066441;28;44244;-77
2023/04/26 08:51:26;;;;;;;2.80;2.67;;;18.00;66.70;;;;;;5066883;28;43384;-78
2023/04/26 08:53:54;;;;;;;3.23;3.03;;;18.00;66.80;;;;;;5065006;28;43391;-77
2023/04/26 08:56:23;;;;;;;2.67;2.57;;;18.00;66.90;;;;;;5061592;28;43604;-77
2023/04/26 08:58:53;;;;;;;2.83;2.63;;;18.00;67.00;;;;;;5066826;28;43615;-77
2023/04/26 09:01:21;;;;;;;2.70;2.50;;;18.00;66.90;;;;;;5065577;28;45026;-78
2023/04/26 09:03:50;;;;;;;2.60;2.50;;;18.00;66.90;;;;;;5062254;28;43402;-77
2023/04/26 09:06:19;;;;;;;2.80;2.60;;;18.00;66.90;;;;;;5066276;28;43380;-77
2023/04/26 09:08:47;;;;;;;2.63;2.53;;;18.00;66.90;;;;;;5065369;28;43666;-77
2023/04/26 09:11:15;;;;;;;2.63;2.53;;;18.00;67.00;;;;;;5064947;28;43404;-77
2023/04/26 09:13:43;;;;;;;2.57;2.37;;;18.00;67.10;;;;;;5066041;28;43403;-77
2023/04/26 09:16:13;;;;;;;2.50;2.40;;;18.00;67.50;;;;;;5067384;28;43940;-77
2023/04/26 09:18:47;;;;;;;2.57;2.43;;;18.10;66.70;;;;;;5065065;28;46007;-77
2023/04/26 09:21:18;;;;;;;2.77;2.57;;;18.20;66.40;;;;;;5066498;28;44002;-77
2023/04/26 09:23:58;;;;;;;2.57;2.40;;;18.30;66.10;;;;;;5066239;28;43400;-77
2023/04/26 09:26:26;;;;;;;2.73;2.53;;;18.30;66.10;;;;;;5058807;28;43589;-77
2023/04/26 09:29:12;;;;;;;2.70;2.60;;;18.20;66.30;;;;;;5057414;28;43576;-77
2023/04/26 09:31:43;;;;;;;2.40;2.30;;;18.20;66.10;;;;;;5060133;28;43450;-77
2023/04/26 09:34:14;;;;;;;2.40;2.30;;;18.20;66.30;;;;;;5065953;28;43498;-75
2023/04/26 09:36:50;;;;;;;2.30;2.20;;;18.20;66.40;;;;;;5051341;28;43335;-78
2023/04/26 09:39:32;;;;;;;2.70;2.50;;;18.20;66.40;;;;;;5057928;28;43765;-78
2023/04/26 09:42:00;;;;;;;2.40;2.30;;;18.10;66.50;;;;;;5059439;28;44855;-76
2023/04/26 09:44:29;;;;;;;2.57;2.37;;;18.10;66.70;;;;;;5059405;28;43421;-76
2023/04/26 09:47:00;;;;;;;2.30;2.20;;;18.10;67.40;;;;;;5065410;28;43461;-76
2023/04/26 09:49:31;;;;;;;2.53;2.40;;;18.10;66.70;;;;;;5064118;28;45303;-78
2023/04/26 09:52:01;;;;;;;2.47;2.37;;;18.10;66.70;;;;;;5060761;28;44883;-76
2023/04/26 09:54:40;;;;;;;2.17;2.10;;;18.00;66.80;;;;;;5058394;28;43436;-78
2023/04/26 09:57:08;;;;;;;2.13;2.07;;;18.00;66.90;;;;;;5060339;28;43472;-75
2023/04/26 09:59:40;;;;;;;2.43;2.30;;;18.00;66.80;;;;;;5054555;28;43839;-75
2023/04/26 10:02:16;;;;;;;2.70;2.40;;;18.00;66.80;;;;;;5063130;28;43447;-75
2023/04/26 10:04:46;;;;;;;2.10;2.00;;;18.00;66.80;;;;;;5061140;28;43464;-76
2023/04/26 10:07:14;;;;;;;2.13;2.03;;;18.00;66.90;;;;;;5065157;28;43432;-77
2023/04/26 10:09:43;;;;;;;2.13;2.03;;;18.00;66.90;;;;;;5061601;28;43837;-76
2023/04/26 10:12:11;;;;;;;2.20;2.10;;;18.00;67.10;;;;;;5058686;28;44886;-76
2023/04/26 10:14:40;;;;;;;2.50;2.40;;;18.00;67.00;;;;;;5065856;28;43372;-77
2023/04/26 10:17:10;;;;;;;2.37;2.27;;;18.10;66.70;;;;;;5066462;28;43403;-76
2023/04/26 10:19:39;;;;;;;2.23;2.13;;;18.30;66.60;;;;;;5056835;28;46012;-76
2023/04/26 10:22:09;;;;;;;2.23;2.13;;;18.30;66.10;;;;;;5065889;28;43452;-78
2023/04/26 10:24:37;;;;;;;2.13;2.13;;;18.30;66.10;;;;;;5063881;28;43445;-78
2023/04/26 10:27:05;;;;;;;1.90;1.90;;;18.30;66.40;;;;;;5066199;28;43549;-76
2023/04/26 10:30:09;;;;;;;1.90;1.87;;;18.30;66.30;;;;;;5054209;28;43839;-76
2023/04/26 10:33:16;;;;;;;2.00;1.90;;;18.20;66.20;;;;;;5063977;28;45081;-77
2023/04/26 10:36:08;;;;;;;2.03;1.93;;;18.20;66.40;;;;;;5063222;28;43444;-77
2023/04/26 10:38:37;;;;;;;1.80;1.73;;;18.10;66.40;;;;;;5064707;28;43350;-77
2023/04/26 10:41:31;;;;;;;2.00;1.90;;;18.10;66.70;;;;;;5062381;28;43614;-77
2023/04/26 10:44:00;;;;;;;1.90;1.90;;;18.10;66.60;;;;;;5068784;28;43493;-77
2023/04/26 10:46:36;;;;;;;1.80;1.80;;;18.10;66.80;;;;;;5067683;28;43566;-77
2023/04/26 10:49:17;;;;;;;2.10;2.00;;;18.10;66.80;;;;;;5062392;28;43750;-78
2023/04/26 10:52:12;;;;;;;2.10;2.00;;;18.00;66.80;;;;;;5066816;28;45415;-77
2023/04/26 10:54:51;;;;;;;1.60;1.60;;;18.00;66.90;;;;;;5066423;28;43515;-77
2023/04/26 10:57:19;;;;;;;1.90;1.90;;;18.00;66.90;;;;;;5066411;28;43519;-77
2023/04/26 11:00:16;;;;;;;1.70;1.70;;;18.00;66.90;;;;;;5069335;28;43399;-77
2023/04/26 11:03:07;;;;;;;2.00;1.90;;;18.00;66.90;;;;;;5055251;28;43695;-77
2023/04/26 11:05:54;;;;;;;1.90;1.80;;;18.00;67.00;;;;;;5054832;28;44620;-76
2023/04/26 11:08:27;;;;;;;2.17;1.93;;;18.00;67.10;;;;;;5067976;28;43497;-78
2023/04/26 11:11:10;;;;;;;1.73;1.73;;;18.00;67.20;;;;;;5075439;28;43522;-76
2023/04/26 11:13:39;;;;;;;1.70;1.70;;;18.10;67.00;;;;;;5063382;28;46293;-77
2023/04/26 11:16:08;;;;;;;1.90;1.90;;;18.20;66.60;;;;;;5066809;28;45325;-78
2023/04/26 11:18:37;;;;;;;2.00;1.90;;;18.20;66.30;;;;;;5068524;28;43440;-77
2023/04/26 11:21:05;;;;;;;1.60;1.60;;;18.20;66.20;;;;;;5067600;28;43425;-77
2023/04/26 11:23:35;;;;;;;1.97;1.97;;;18.20;66.30;;;;;;5068452;28;44054;-77
2023/04/26 11:26:03;;;;;;;1.80;1.80;;;18.20;66.40;;;;;;5068145;28;43471;-77
2023/04/26 11:28:32;;;;;;;1.70;1.70;;;18.20;66.40;;;;;;5068444;28;43486;-79
2023/04/26 11:31:01;;;;;;;1.70;1.70;;;18.20;66.40;;;;;;5068654;28;43529;-75
2023/04/26 11:33:30;;;;;;;1.70;1.63;;;18.20;66.40;;;;;;5059193;28;44048;-77
2023/04/26 11:35:58;;;;;;;1.73;1.70;;;18.10;66.60;;;;;;5063964;28;43457;-78
2023/04/26 11:38:27;;;;;;;1.60;1.60;;;18.10;66.70;;;;;;5063516;28;43778;-76
2023/04/26 11:40:57;;;;;;;1.53;1.53;;;18.10;66.80;;;;;;5064372;28;43450;-76
2023/04/26 11:43:30;;;;;;;1.70;1.70;;;18.10;66.80;;;;;;5059730;28;45361;-76
2023/04/26 11:45:59;;;;;;;1.70;1.70;;;18.10;66.90;;;;;;5060427;28;43428;-78
2023/04/26 11:48:27;;;;;;;1.77;1.70;;;18.10;66.90;;;;;;5068417;28;43404;-76
2023/04/26 11:50:56;;;;;;;1.90;1.90;;;18.00;66.90;;;;;;5055634;28;43428;-79
2023/04/26 11:53:24;;;;;;;1.83;1.73;;;18.00;67.10;;;;;;5059984;28;45735;-77
2023/04/26 11:55:52;;;;;;;2.30;1.70;;;18.10;67.20;;;;;;5064588;28;45131;-77
2023/04/26 11:58:21;;;;;;;1.60;1.60;;;18.10;66.70;;;;;;5065732;28;43429;-77
2023/04/26 12:00:56;;;;;;;2.43;2.30;;;18.20;66.40;;;;;;5055024;28;43429;-75
2023/04/26 12:03:28;;;;;;;1.80;1.70;;;18.20;66.40;;;;;;5066331;28;43928;-76
2023/04/26 12:05:57;;;;;;;1.97;1.87;;;18.20;66.40;;;;;;5065713;28;43444;-78
2023/04/26 12:08:25;;;;;;;1.60;1.60;;;18.10;66.50;;;;;;5062915;28;43503;-74
2023/04/26 12:10:53;;;;;;;1.60;1.60;;;18.10;67.20;;;;;;5057156;28;44015;-77
2023/04/26 12:13:23;;;;;;;1.60;1.60;;;18.10;66.60;;;;;;5058987;28;44103;-75
2023/04/26 12:15:51;;;;;;;1.50;1.50;;;18.10;66.70;;;;;;5058117;28;43521;-76
2023/04/26 12:18:20;;;;;;;1.70;1.60;;;18.10;66.80;;;;;;5057616;28;43401;-76
2023/04/26 12:20:48;;;;;;;1.60;1.60;;;18.10;66.90;;;;;;5060817;28;43332;-78
2023/04/26 12:23:16;;;;;;;1.50;1.50;;;18.00;66.90;;;;;;5057401;28;43880;-75
2023/04/26 12:25:53;;;;;;;1.50;1.50;;;18.00;66.90;;;;;;5060805;28;43427;-76
2023/04/26 12:28:23;;;;;;;1.70;1.70;;;18.10;67.00;;;;;;5056835;28;43383;-77
2023/04/26 12:30:51;;;;;;;1.47;1.47;;;18.00;66.90;;;;;;5058189;28;44136;-77
2023/04/26 12:33:21;;;;;;;1.70;1.70;;;18.00;67.00;;;;;;5056394;28;43632;-82
2023/04/26 12:35:50;;;;;;;1.80;1.70;;;18.00;67.20;;;;;;5058916;28;43463;-76
2023/04/26 12:38:18;;;;;;;1.50;1.50;;;18.00;67.20;;;;;;5055063;28;43456;-76
2023/04/26 12:40:46;;;;;;;1.40;1.40;;;18.10;67.00;;;;;;5059024;28;43410;-76
2023/04/26 12:43:15;;;;;;;1.50;1.50;;;18.20;66.70;;;;;;5053781;28;45743;-76
2023/04/26 12:45:45;;;;;;;1.77;1.67;;;18.10;66.60;;;;;;5055285;28;45166;-75
2023/04/26 12:48:13;;;;;;;1.30;1.30;;;18.20;66.70;;;;;;5058896;28;43452;-76
2023/04/26 12:50:42;;;;;;;1.60;1.60;;;18.10;66.70;;;;;;5078528;28;43970;-76
2023/04/26 12:53:11;;;;;;;1.50;1.50;;;18.10;66.80;;;;;;5057638;28;46534;-76
2023/04/26 12:55:39;;;;;;;1.57;1.57;;;18.10;66.80;;;;;;5062222;28;43474;-76
2023/04/26 12:58:07;;;;;;;1.50;1.50;;;18.10;66.80;;;;;;5057327;28;43475;-77
2023/04/26 13:00:35;;;;;;;1.50;1.50;;;18.10;67.00;;;;;;5058575;28;43364;-76